sensor_id;sensor_type;location;lat;lon;timestamp;temperature;humidity
3778;DHT22;1904;50.076;8.660;2022-07-17T00:01:41;15.90;1.00
3778;DHT22;1904;50.076;8.660;2022-07-17T00:04:17;15.80;1.00
3778;DHT22;1904;50.076;8.660;2022-07-17T00:06:47;15.80;1.00
3778;DHT22;1904;50.076;8.660;2022-07-17T00:09:17;15.70;1.00
3778;DHT22;1904;50.076;8.660;2022-07-17T00:11:47;15.60;1.00
3778;DHT22;1904;50.076;8.660;2022-07-17T00:14:17;15.50;1.00
3778;DHT22;1904;50.076;8.660;2022-07-17T00:16:43;15.50;1.00
3778;DHT22;1904;50.076;8.660;2022-07-17T00:19:08;15.40;1.00
3778;DHT22;1904;50.076;8.660;2022-07-17T00:21:35;15.40;1.00
3778;DHT22;1904;50.076;8.660;2022-07-17T00:24:01;15.30;1.00
3778;DHT22;1904;50.076;8.660;2022-07-17T00:26:26;15.30;1.00
3778;DHT22;1904;50.076;8.660;2022-07-17T00:28:52;15.20;1.00
3778;DHT22;1904;50.076;8.660;2022-07-17T00:31:23;15.10;1.00
3778;DHT22;1904;50.076;8.660;2022-07-17T00:33:49;15.10;1.00
3778;DHT22;1904;50.076;8.660;2022-07-17T00:36:14;15.00;1.00
3778;DHT22;1904;50.076;8.660;2022-07-17T00:38:40;15.10;1.00
3778;DHT22;1904;50.076;8.660;2022-07-17T00:41:14;15.00;1.00
3778;DHT22;1904;50.076;8.660;2022-07-17T00:43:39;14.90;1.00
3778;DHT22;1904;50.076;8.660;2022-07-17T00:46:05;14.90;1.00
3778;DHT22;1904;50.076;8.660;2022-07-17T00:48:32;14.90;1.00
3778;DHT22;1904;50.076;8.660;2022-07-17T00:50:57;14.80;1.00
3778;DHT22;1904;50.076;8.660;2022-07-17T00:53:23;14.70;1.00
3778;DHT22;1904;50.076;8.660;2022-07-17T00:55:49;14.70;1.00
3778;DHT22;1904;50.076;8.660;2022-07-17T00:58:23;14.60;1.00
3778;DHT22;1904;50.076;8.660;2022-07-17T01:00:59;14.50;1.00
3778;DHT22;1904;50.076;8.660;2022-07-17T01:03:25;14.50;1.00
3778;DHT22;1904;50.076;8.660;2022-07-17T01:05:52;14.50;1.00
3778;DHT22;1904;50.076;8.660;2022-07-17T01:08:18;14.40;1.00
3778;DHT22;1904;50.076;8.660;2022-07-17T01:10:44;14.40;1.00
3778;DHT22;1904;50.076;8.660;2022-07-17T01:13:10;14.40;1.00
3778;DHT22;1904;50.076;8.660;2022-07-17T01:15:38;14.30;1.00
3778;DHT22;1904;50.076;8.660;2022-07-17T01:18:06;14.30;1.00
3778;DHT22;1904;50.076;8.660;2022-07-17T01:20:33;14.20;1.00
3778;DHT22;1904;50.076;8.660;2022-07-17T01:23:11;14.20;1.00
3778;DHT22;1904;50.076;8.660;2022-07-17T01:25:37;14.20;1.00
3778;DHT22;1904;50.076;8.660;2022-07-17T01:28:05;14.10;1.00
3778;DHT22;1904;50.076;8.660;2022-07-17T01:30:36;14.10;1.00
3778;DHT22;1904;50.076;8.660;2022-07-17T01:33:05;14.00;1.00
3778;DHT22;1904;50.076;8.660;2022-07-17T01:35:31;14.00;1.00
3778;DHT22;1904;50.076;8.660;2022-07-17T01:37:59;13.90;1.00
3778;DHT22;1904;50.076;8.660;2022-07-17T01:40:35;13.90;1.00
3778;DHT22;1904;50.076;8.660;2022-07-17T01:43:01;13.90;1.00
3778;DHT22;1904;50.076;8.660;2022-07-17T01:45:27;13.80;1.00
3778;DHT22;1904;50.076;8.660;2022-07-17T01:47:59;13.80;1.00
3778;DHT22;1904;50.076;8.660;2022-07-17T01:50:29;13.70;1.00
3778;DHT22;1904;50.076;8.660;2022-07-17T01:52:59;13.70;1.00
3778;DHT22;1904;50.076;8.660;2022-07-17T01:55:25;13.70;1.00
3778;DHT22;1904;50.076;8.660;2022-07-17T01:57:51;13.60;1.00
3778;DHT22;1904;50.076;8.660;2022-07-17T02:00:18;13.60;1.00
3778;DHT22;1904;50.076;8.660;2022-07-17T02:02:47;13.60;1.00
3778;DHT22;1904;50.076;8.660;2022-07-17T02:05:13;13.50;1.00
3778;DHT22;1904;50.076;8.660;2022-07-17T02:07:41;13.50;1.00
3778;DHT22;1904;50.076;8.660;2022-07-17T02:10:12;13.50;1.00
3778;DHT22;1904;50.076;8.660;2022-07-17T02:12:39;13.50;1.00
3778;DHT22;1904;50.076;8.660;2022-07-17T02:15:05;13.50;1.00
3778;DHT22;1904;50.076;8.660;2022-07-17T02:17:31;13.40;1.00
3778;DHT22;1904;50.076;8.660;2022-07-17T02:19:57;13.30;1.00
3778;DHT22;1904;50.076;8.660;2022-07-17T02:22:22;13.30;1.00
3778;DHT22;1904;50.076;8.660;2022-07-17T02:24:48;13.30;1.00
3778;DHT22;1904;50.076;8.660;2022-07-17T02:27:17;13.30;1.00
3778;DHT22;1904;50.076;8.660;2022-07-17T02:29:43;13.20;1.00
3778;DHT22;1904;50.076;8.660;2022-07-17T02:32:08;13.20;1.00
3778;DHT22;1904;50.076;8.660;2022-07-17T02:34:34;13.20;1.00
3778;DHT22;1904;50.076;8.660;2022-07-17T02:37:00;13.40;1.00
3778;DHT22;1904;50.076;8.660;2022-07-17T02:39:25;13.20;1.00
3778;DHT22;1904;50.076;8.660;2022-07-17T02:41:53;13.10;1.00
3778;DHT22;1904;50.076;8.660;2022-07-17T02:44:29;13.10;1.00
3778;DHT22;1904;50.076;8.660;2022-07-17T02:46:55;13.10;1.00
3778;DHT22;1904;50.076;8.660;2022-07-17T02:49:20;13.00;1.00
3778;DHT22;1904;50.076;8.660;2022-07-17T02:52:05;13.00;1.00
3778;DHT22;1904;50.076;8.660;2022-07-17T02:54:30;13.00;1.00
3778;DHT22;1904;50.076;8.660;2022-07-17T02:56:59;13.00;1.00
3778;DHT22;1904;50.076;8.660;2022-07-17T02:59:25;12.90;1.00
3778;DHT22;1904;50.076;8.660;2022-07-17T03:01:53;12.90;1.00
3778;DHT22;1904;50.076;8.660;2022-07-17T03:04:29;12.80;1.00
3778;DHT22;1904;50.076;8.660;2022-07-17T03:06:55;12.80;1.00
3778;DHT22;1904;50.076;8.660;2022-07-17T03:09:21;12.80;1.00
3778;DHT22;1904;50.076;8.660;2022-07-17T03:11:47;12.70;1.00
3778;DHT22;1904;50.076;8.660;2022-07-17T03:14:17;12.70;1.00
3778;DHT22;1904;50.076;8.660;2022-07-17T03:16:43;12.70;1.00
3778;DHT22;1904;50.076;8.660;2022-07-17T03:19:09;12.60;1.00
3778;DHT22;1904;50.076;8.660;2022-07-17T03:21:35;12.60;1.00
3778;DHT22;1904;50.076;8.660;2022-07-17T03:24:01;12.60;1.00
3778;DHT22;1904;50.076;8.660;2022-07-17T03:26:29;12.60;1.00
3778;DHT22;1904;50.076;8.660;2022-07-17T03:28:59;12.50;1.00
3778;DHT22;1904;50.076;8.660;2022-07-17T03:31:25;12.50;1.00
3778;DHT22;1904;50.076;8.660;2022-07-17T03:33:53;12.50;1.00
3778;DHT22;1904;50.076;8.660;2022-07-17T03:36:19;12.40;1.00
3778;DHT22;1904;50.076;8.660;2022-07-17T03:38:45;12.40;1.00
3778;DHT22;1904;50.076;8.660;2022-07-17T03:41:11;12.50;1.00
3778;DHT22;1904;50.076;8.660;2022-07-17T03:43:37;12.40;1.00
3778;DHT22;1904;50.076;8.660;2022-07-17T03:46:03;12.30;1.00
3778;DHT22;1904;50.076;8.660;2022-07-17T03:48:29;12.20;1.00
3778;DHT22;1904;50.076;8.660;2022-07-17T03:50:54;12.20;1.00
3778;DHT22;1904;50.076;8.660;2022-07-17T03:53:20;12.20;1.00
3778;DHT22;1904;50.076;8.660;2022-07-17T03:55:46;12.30;1.00
3778;DHT22;1904;50.076;8.660;2022-07-17T03:58:35;12.30;1.00
3778;DHT22;1904;50.076;8.660;2022-07-17T04:01:01;12.20;1.00
3778;DHT22;1904;50.076;8.660;2022-07-17T04:03:29;12.30;1.00
3778;DHT22;1904;50.076;8.660;2022-07-17T04:05:59;12.20;1.00
3778;DHT22;1904;50.076;8.660;2022-07-17T04:08:30;12.30;1.00
3778;DHT22;1904;50.076;8.660;2022-07-17T04:10:59;12.20;1.00
3778;DHT22;1904;50.076;8.660;2022-07-17T04:13:29;12.30;1.00
3778;DHT22;1904;50.076;8.660;2022-07-17T04:19:00;12.30;1.00
3778;DHT22;1904;50.076;8.660;2022-07-17T04:21:41;12.30;1.00
3778;DHT22;1904;50.076;8.660;2022-07-17T04:24:07;12.30;1.00
3778;DHT22;1904;50.076;8.660;2022-07-17T04:26:35;12.30;1.00
3778;DHT22;1904;50.076;8.660;2022-07-17T04:29:05;12.40;1.00
3778;DHT22;1904;50.076;8.660;2022-07-17T04:31:35;12.40;1.00
3778;DHT22;1904;50.076;8.660;2022-07-17T04:34:11;12.50;1.00
3778;DHT22;1904;50.076;8.660;2022-07-17T04:36:37;12.50;1.00
3778;DHT22;1904;50.076;8.660;2022-07-17T04:39:05;12.70;1.00
3778;DHT22;1904;50.076;8.660;2022-07-17T04:41:47;12.60;1.00
3778;DHT22;1904;50.076;8.660;2022-07-17T04:44:29;12.70;1.00
3778;DHT22;1904;50.076;8.660;2022-07-17T04:47:00;12.70;1.00
3778;DHT22;1904;50.076;8.660;2022-07-17T04:49:29;12.60;1.00
3778;DHT22;1904;50.076;8.660;2022-07-17T04:51:55;12.90;1.00
3778;DHT22;1904;50.076;8.660;2022-07-17T04:54:23;12.90;1.00
3778;DHT22;1904;50.076;8.660;2022-07-17T04:57:05;13.00;1.00
3778;DHT22;1904;50.076;8.660;2022-07-17T04:59:35;13.00;1.00
3778;DHT22;1904;50.076;8.660;2022-07-17T05:02:03;13.00;1.00
3778;DHT22;1904;50.076;8.660;2022-07-17T05:04:29;13.20;1.00
3778;DHT22;1904;50.076;8.660;2022-07-17T05:06:55;13.20;1.00
3778;DHT22;1904;50.076;8.660;2022-07-17T05:09:23;13.30;1.00
3778;DHT22;1904;50.076;8.660;2022-07-17T05:11:49;13.40;1.00
3778;DHT22;1904;50.076;8.660;2022-07-17T05:14:17;13.50;1.00
3778;DHT22;1904;50.076;8.660;2022-07-17T05:16:59;13.60;1.00
3778;DHT22;1904;50.076;8.660;2022-07-17T05:19:25;13.70;1.00
3778;DHT22;1904;50.076;8.660;2022-07-17T05:21:53;13.80;1.00
3778;DHT22;1904;50.076;8.660;2022-07-17T05:24:35;13.80;1.00
3778;DHT22;1904;50.076;8.660;2022-07-17T05:27:05;14.00;1.00
3778;DHT22;1904;50.076;8.660;2022-07-17T05:29:47;14.10;1.00
3778;DHT22;1904;50.076;8.660;2022-07-17T05:32:29;14.20;1.00
3778;DHT22;1904;50.076;8.660;2022-07-17T05:38:17;14.40;1.00
3778;DHT22;1904;50.076;8.660;2022-07-17T05:44:17;14.70;1.00
3778;DHT22;1904;50.076;8.660;2022-07-17T05:47:00;14.90;1.00
3778;DHT22;1904;50.076;8.660;2022-07-17T05:49:26;15.10;1.00
3778;DHT22;1904;50.076;8.660;2022-07-17T05:51:52;15.20;1.00
3778;DHT22;1904;50.076;8.660;2022-07-17T05:54:20;15.30;1.00
3778;DHT22;1904;50.076;8.660;2022-07-17T05:57:23;15.50;1.00
3778;DHT22;1904;50.076;8.660;2022-07-17T05:59:48;15.70;1.00
3778;DHT22;1904;50.076;8.660;2022-07-17T06:02:17;15.80;1.00
3778;DHT22;1904;50.076;8.660;2022-07-17T06:04:47;15.90;1.00
3778;DHT22;1904;50.076;8.660;2022-07-17T06:10:41;16.20;1.00
3778;DHT22;1904;50.076;8.660;2022-07-17T06:13:17;16.40;1.00
3778;DHT22;1904;50.076;8.660;2022-07-17T06:15:47;16.60;1.00
3778;DHT22;1904;50.076;8.660;2022-07-17T06:18:13;16.60;1.00
3778;DHT22;1904;50.076;8.660;2022-07-17T06:20:41;16.80;1.00
3778;DHT22;1904;50.076;8.660;2022-07-17T06:23:17;17.00;1.00
3778;DHT22;1904;50.076;8.660;2022-07-17T06:25:47;17.10;1.00
3778;DHT22;1904;50.076;8.660;2022-07-17T06:28:23;17.20;1.00
3778;DHT22;1904;50.076;8.660;2022-07-17T06:31:05;17.30;1.00
3778;DHT22;1904;50.076;8.660;2022-07-17T06:33:31;17.50;1.00
3778;DHT22;1904;50.076;8.660;2022-07-17T06:35:56;17.60;1.00
3778;DHT22;1904;50.076;8.660;2022-07-17T06:38:22;17.80;1.00
3778;DHT22;1904;50.076;8.660;2022-07-17T06:40:48;17.90;1.00
3778;DHT22;1904;50.076;8.660;2022-07-17T06:43:14;18.10;1.00
3778;DHT22;1904;50.076;8.660;2022-07-17T06:45:39;18.10;1.00
3778;DHT22;1904;50.076;8.660;2022-07-17T06:48:05;18.30;1.00
3778;DHT22;1904;50.076;8.660;2022-07-17T06:50:31;18.50;1.00
3778;DHT22;1904;50.076;8.660;2022-07-17T06:52:57;18.60;1.00
3778;DHT22;1904;50.076;8.660;2022-07-17T06:55:41;18.70;1.00
3778;DHT22;1904;50.076;8.660;2022-07-17T06:58:08;18.90;1.00
3778;DHT22;1904;50.076;8.660;2022-07-17T07:00:35;19.00;1.00
3778;DHT22;1904;50.076;8.660;2022-07-17T07:03:17;19.10;1.00
3778;DHT22;1904;50.076;8.660;2022-07-17T07:06:05;19.20;1.00
3778;DHT22;1904;50.076;8.660;2022-07-17T07:08:32;19.40;1.00
3778;DHT22;1904;50.076;8.660;2022-07-17T07:11:17;19.60;1.00
3778;DHT22;1904;50.076;8.660;2022-07-17T07:13:43;19.80;1.00
3778;DHT22;1904;50.076;8.660;2022-07-17T07:16:09;19.90;1.00
3778;DHT22;1904;50.076;8.660;2022-07-17T07:18:41;20.10;1.00
3778;DHT22;1904;50.076;8.660;2022-07-17T07:21:17;20.20;1.00
3778;DHT22;1904;50.076;8.660;2022-07-17T07:23:44;20.30;1.00
3778;DHT22;1904;50.076;8.660;2022-07-17T07:26:41;20.40;1.00
3778;DHT22;1904;50.076;8.660;2022-07-17T07:29:11;20.50;1.00
3778;DHT22;1904;50.076;8.660;2022-07-17T07:31:41;20.70;1.00
3778;DHT22;1904;50.076;8.660;2022-07-17T07:34:11;20.80;1.00
3778;DHT22;1904;50.076;8.660;2022-07-17T07:36:41;20.80;1.00
3778;DHT22;1904;50.076;8.660;2022-07-17T07:39:08;20.90;1.00
3778;DHT22;1904;50.076;8.660;2022-07-17T07:41:34;21.00;1.00
3778;DHT22;1904;50.076;8.660;2022-07-17T07:44:35;21.10;1.00
3778;DHT22;1904;50.076;8.660;2022-07-17T07:50:29;21.40;1.00
3778;DHT22;1904;50.076;8.660;2022-07-17T07:53:05;21.60;1.00
3778;DHT22;1904;50.076;8.660;2022-07-17T07:56:05;21.70;1.00
3778;DHT22;1904;50.076;8.660;2022-07-17T08:01:53;22.00;1.00
3778;DHT22;1904;50.076;8.660;2022-07-17T08:04:29;22.10;1.00
3778;DHT22;1904;50.076;8.660;2022-07-17T08:07:11;22.30;1.00
3778;DHT22;1904;50.076;8.660;2022-07-17T08:09:41;22.50;1.00
3778;DHT22;1904;50.076;8.660;2022-07-17T08:12:07;22.60;1.00
3778;DHT22;1904;50.076;8.660;2022-07-17T08:14:33;22.70;1.00
3778;DHT22;1904;50.076;8.660;2022-07-17T08:17:05;22.80;1.00
3778;DHT22;1904;50.076;8.660;2022-07-17T08:19:35;23.00;1.00
3778;DHT22;1904;50.076;8.660;2022-07-17T08:22:01;23.10;1.00
3778;DHT22;1904;50.076;8.660;2022-07-17T08:24:27;23.30;1.00
3778;DHT22;1904;50.076;8.660;2022-07-17T08:26:53;23.20;1.00
3778;DHT22;1904;50.076;8.660;2022-07-17T08:29:19;23.20;1.00
3778;DHT22;1904;50.076;8.660;2022-07-17T08:31:45;23.30;1.00
3778;DHT22;1904;50.076;8.660;2022-07-17T08:34:10;23.30;1.00
3778;DHT22;1904;50.076;8.660;2022-07-17T08:36:36;23.40;1.00
3778;DHT22;1904;50.076;8.660;2022-07-17T08:39:23;23.40;1.00
3778;DHT22;1904;50.076;8.660;2022-07-17T08:41:49;23.50;1.00
3778;DHT22;1904;50.076;8.660;2022-07-17T08:44:35;23.70;1.00
3778;DHT22;1904;50.076;8.660;2022-07-17T08:47:23;23.80;1.00
3778;DHT22;1904;50.076;8.660;2022-07-17T08:49:53;24.00;1.00
3778;DHT22;1904;50.076;8.660;2022-07-17T08:52:53;24.00;1.00
3778;DHT22;1904;50.076;8.660;2022-07-17T08:55:23;24.10;1.00
3778;DHT22;1904;50.076;8.660;2022-07-17T08:57:53;24.20;1.00
3778;DHT22;1904;50.076;8.660;2022-07-17T09:00:21;24.40;1.00
3778;DHT22;1904;50.076;8.660;2022-07-17T09:03:06;24.40;1.00
3778;DHT22;1904;50.076;8.660;2022-07-17T09:05:37;24.50;1.00
3778;DHT22;1904;50.076;8.660;2022-07-17T09:08:07;24.40;1.00
3778;DHT22;1904;50.076;8.660;2022-07-17T09:10:41;24.50;1.00
3778;DHT22;1904;50.076;8.660;2022-07-17T09:13:20;24.60;1.00
3778;DHT22;1904;50.076;8.660;2022-07-17T09:15:48;24.60;1.00
3778;DHT22;1904;50.076;8.660;2022-07-17T09:18:18;24.70;1.00
3778;DHT22;1904;50.076;8.660;2022-07-17T09:20:49;24.80;1.00
3778;DHT22;1904;50.076;8.660;2022-07-17T09:23:19;24.90;1.00
3778;DHT22;1904;50.076;8.660;2022-07-17T09:25:48;25.00;1.00
3778;DHT22;1904;50.076;8.660;2022-07-17T09:28:26;25.10;1.00
3778;DHT22;1904;50.076;8.660;2022-07-17T09:30:54;25.10;1.00
3778;DHT22;1904;50.076;8.660;2022-07-17T09:33:23;25.20;1.00
3778;DHT22;1904;50.076;8.660;2022-07-17T09:35:57;25.30;1.00
3778;DHT22;1904;50.076;8.660;2022-07-17T09:38:59;25.40;1.00
3778;DHT22;1904;50.076;8.660;2022-07-17T09:41:25;25.50;1.00
3778;DHT22;1904;50.076;8.660;2022-07-17T09:43:58;25.60;1.00
3778;DHT22;1904;50.076;8.660;2022-07-17T09:46:29;25.60;1.00
3778;DHT22;1904;50.076;8.660;2022-07-17T09:49:02;25.70;1.00
3778;DHT22;1904;50.076;8.660;2022-07-17T09:51:39;25.70;1.00
3778;DHT22;1904;50.076;8.660;2022-07-17T09:54:11;25.70;1.00
3778;DHT22;1904;50.076;8.660;2022-07-17T09:56:58;25.70;1.00
3778;DHT22;1904;50.076;8.660;2022-07-17T09:59:37;25.70;1.00
3778;DHT22;1904;50.076;8.660;2022-07-17T10:02:03;25.60;1.00
3778;DHT22;1904;50.076;8.660;2022-07-17T10:04:29;25.80;1.00
3778;DHT22;1904;50.076;8.660;2022-07-17T10:07:11;26.00;1.00
3778;DHT22;1904;50.076;8.660;2022-07-17T10:09:47;26.10;1.00
3778;DHT22;1904;50.076;8.660;2022-07-17T10:12:18;26.20;1.00
3778;DHT22;1904;50.076;8.660;2022-07-17T10:14:48;26.30;1.00
3778;DHT22;1904;50.076;8.660;2022-07-17T10:17:19;26.40;1.00
3778;DHT22;1904;50.076;8.660;2022-07-17T10:19:52;26.60;1.00
3778;DHT22;1904;50.076;8.660;2022-07-17T10:22:43;26.70;1.00
3778;DHT22;1904;50.076;8.660;2022-07-17T10:25:16;26.90;1.00
3778;DHT22;1904;50.076;8.660;2022-07-17T10:27:53;26.90;1.00
3778;DHT22;1904;50.076;8.660;2022-07-17T10:30:29;26.70;1.00
3778;DHT22;1904;50.076;8.660;2022-07-17T10:36:05;26.90;1.00
3778;DHT22;1904;50.076;8.660;2022-07-17T10:38:41;27.00;1.00
3778;DHT22;1904;50.076;8.660;2022-07-17T10:41:19;27.10;1.00
3778;DHT22;1904;50.076;8.660;2022-07-17T10:43:48;27.10;1.00
3778;DHT22;1904;50.076;8.660;2022-07-17T10:46:41;27.00;1.00
3778;DHT22;1904;50.076;8.660;2022-07-17T10:49:11;27.10;1.00
3778;DHT22;1904;50.076;8.660;2022-07-17T10:51:53;27.10;1.00
3778;DHT22;1904;50.076;8.660;2022-07-17T10:54:33;27.30;1.00
3778;DHT22;1904;50.076;8.660;2022-07-17T10:57:01;27.50;1.00
3778;DHT22;1904;50.076;8.660;2022-07-17T10:59:42;27.50;1.00
3778;DHT22;1904;50.076;8.660;2022-07-17T11:02:11;27.70;1.00
3778;DHT22;1904;50.076;8.660;2022-07-17T11:04:47;27.70;1.00
3778;DHT22;1904;50.076;8.660;2022-07-17T11:07:29;27.70;1.00
3778;DHT22;1904;50.076;8.660;2022-07-17T11:10:17;27.70;1.00
3778;DHT22;1904;50.076;8.660;2022-07-17T11:12:43;27.70;1.00
3778;DHT22;1904;50.076;8.660;2022-07-17T11:15:17;27.80;1.00
3778;DHT22;1904;50.076;8.660;2022-07-17T11:17:49;27.80;1.00
3778;DHT22;1904;50.076;8.660;2022-07-17T11:20:17;27.90;1.00
3778;DHT22;1904;50.076;8.660;2022-07-17T11:22:43;28.10;1.00
3778;DHT22;1904;50.076;8.660;2022-07-17T11:25:35;28.20;1.00
3778;DHT22;1904;50.076;8.660;2022-07-17T11:30:59;28.20;1.00
3778;DHT22;1904;50.076;8.660;2022-07-17T11:33:56;28.30;1.00
3778;DHT22;1904;50.076;8.660;2022-07-17T11:38:55;28.30;1.00
3778;DHT22;1904;50.076;8.660;2022-07-17T11:41:41;28.40;1.00
3778;DHT22;1904;50.076;8.660;2022-07-17T11:44:16;28.40;1.00
3778;DHT22;1904;50.076;8.660;2022-07-17T11:46:48;28.50;1.00
3778;DHT22;1904;50.076;8.660;2022-07-17T11:49:38;28.70;1.00
3778;DHT22;1904;50.076;8.660;2022-07-17T11:52:14;28.60;1.00
3778;DHT22;1904;50.076;8.660;2022-07-17T11:54:55;28.80;1.00
3778;DHT22;1904;50.076;8.660;2022-07-17T11:57:42;28.90;1.00
3778;DHT22;1904;50.076;8.660;2022-07-17T12:00:08;29.00;1.00
3778;DHT22;1904;50.076;8.660;2022-07-17T12:02:35;29.10;1.00
3778;DHT22;1904;50.076;8.660;2022-07-17T12:05:01;29.30;1.00
3778;DHT22;1904;50.076;8.660;2022-07-17T12:07:41;29.40;1.00
3778;DHT22;1904;50.076;8.660;2022-07-17T12:10:18;29.40;1.00
3778;DHT22;1904;50.076;8.660;2022-07-17T12:12:58;29.40;1.00
3778;DHT22;1904;50.076;8.660;2022-07-17T12:15:53;29.40;1.00
3778;DHT22;1904;50.076;8.660;2022-07-17T12:18:35;29.50;1.00
3778;DHT22;1904;50.076;8.660;2022-07-17T12:21:05;29.70;1.00
3778;DHT22;1904;50.076;8.660;2022-07-17T12:27:23;30.00;1.00
3778;DHT22;1904;50.076;8.660;2022-07-17T12:29:59;30.00;1.00
3778;DHT22;1904;50.076;8.660;2022-07-17T12:32:41;30.10;1.00
3778;DHT22;1904;50.076;8.660;2022-07-17T12:35:11;30.20;1.00
3778;DHT22;1904;50.076;8.660;2022-07-17T12:37:47;30.20;1.00
3778;DHT22;1904;50.076;8.660;2022-07-17T12:40:13;30.20;1.00
3778;DHT22;1904;50.076;8.660;2022-07-17T12:42:39;30.20;1.00
3778;DHT22;1904;50.076;8.660;2022-07-17T12:45:23;30.30;1.00
3778;DHT22;1904;50.076;8.660;2022-07-17T12:47:53;30.40;1.00
3778;DHT22;1904;50.076;8.660;2022-07-17T12:50:19;30.50;1.00
3778;DHT22;1904;50.076;8.660;2022-07-17T12:52:48;30.60;1.00
3778;DHT22;1904;50.076;8.660;2022-07-17T12:55:14;30.60;1.00
3778;DHT22;1904;50.076;8.660;2022-07-17T12:57:41;30.60;1.00
3778;DHT22;1904;50.076;8.660;2022-07-17T13:00:07;30.60;1.00
3778;DHT22;1904;50.076;8.660;2022-07-17T13:02:33;30.60;1.00
3778;DHT22;1904;50.076;8.660;2022-07-17T13:04:59;30.70;1.00
3778;DHT22;1904;50.076;8.660;2022-07-17T13:07:29;30.60;1.00
3778;DHT22;1904;50.076;8.660;2022-07-17T13:10:05;30.60;1.00
3778;DHT22;1904;50.076;8.660;2022-07-17T13:12:35;30.70;1.00
3778;DHT22;1904;50.076;8.660;2022-07-17T13:15:11;30.80;1.00
3778;DHT22;1904;50.076;8.660;2022-07-17T13:17:37;31.00;1.00
3778;DHT22;1904;50.076;8.660;2022-07-17T13:20:04;31.10;1.00
3778;DHT22;1904;50.076;8.660;2022-07-17T13:22:41;31.10;1.00
3778;DHT22;1904;50.076;8.660;2022-07-17T13:25:07;31.20;1.00
3778;DHT22;1904;50.076;8.660;2022-07-17T13:27:33;31.20;1.00
3778;DHT22;1904;50.076;8.660;2022-07-17T13:29:59;31.30;1.00
3778;DHT22;1904;50.076;8.660;2022-07-17T13:32:24;31.30;1.00
3778;DHT22;1904;50.076;8.660;2022-07-17T13:34:50;31.30;1.00
3778;DHT22;1904;50.076;8.660;2022-07-17T13:37:17;31.20;1.00
3778;DHT22;1904;50.076;8.660;2022-07-17T13:39:43;31.30;1.00
3778;DHT22;1904;50.076;8.660;2022-07-17T13:42:09;31.40;1.00
3778;DHT22;1904;50.076;8.660;2022-07-17T13:44:35;31.40;1.00
3778;DHT22;1904;50.076;8.660;2022-07-17T13:47:01;31.50;1.00
3778;DHT22;1904;50.076;8.660;2022-07-17T13:49:27;31.60;1.00
3778;DHT22;1904;50.076;8.660;2022-07-17T13:51:53;31.60;1.00
3778;DHT22;1904;50.076;8.660;2022-07-17T13:54:23;31.70;1.00
3778;DHT22;1904;50.076;8.660;2022-07-17T13:56:49;31.70;1.00
3778;DHT22;1904;50.076;8.660;2022-07-17T13:59:15;31.80;1.00
3778;DHT22;1904;50.076;8.660;2022-07-17T14:01:41;31.80;1.00
3778;DHT22;1904;50.076;8.660;2022-07-17T14:04:06;31.90;1.00
3778;DHT22;1904;50.076;8.660;2022-07-17T14:06:32;31.80;1.00
3778;DHT22;1904;50.076;8.660;2022-07-17T14:08:58;31.80;1.00
3778;DHT22;1904;50.076;8.660;2022-07-17T14:11:24;31.60;1.00
3778;DHT22;1904;50.076;8.660;2022-07-17T14:13:50;31.70;1.00
3778;DHT22;1904;50.076;8.660;2022-07-17T14:16:17;32.00;1.00
3778;DHT22;1904;50.076;8.660;2022-07-17T14:18:43;32.10;1.00
3778;DHT22;1904;50.076;8.660;2022-07-17T14:21:35;32.20;1.00
3778;DHT22;1904;50.076;8.660;2022-07-17T14:24:02;32.30;1.00
3778;DHT22;1904;50.076;8.660;2022-07-17T14:26:28;32.30;1.00
3778;DHT22;1904;50.076;8.660;2022-07-17T14:28:54;32.40;1.00
3778;DHT22;1904;50.076;8.660;2022-07-17T14:31:20;32.40;1.00
3778;DHT22;1904;50.076;8.660;2022-07-17T14:33:46;32.50;1.00
3778;DHT22;1904;50.076;8.660;2022-07-17T14:36:12;32.60;1.00
3778;DHT22;1904;50.076;8.660;2022-07-17T14:38:38;32.70;1.00
3778;DHT22;1904;50.076;8.660;2022-07-17T14:41:03;32.70;1.00
3778;DHT22;1904;50.076;8.660;2022-07-17T14:43:29;32.80;1.00
3778;DHT22;1904;50.076;8.660;2022-07-17T14:45:55;32.90;1.00
3778;DHT22;1904;50.076;8.660;2022-07-17T14:48:21;32.90;1.00
3778;DHT22;1904;50.076;8.660;2022-07-17T14:50:47;33.00;1.00
3778;DHT22;1904;50.076;8.660;2022-07-17T14:53:13;33.10;1.00
3778;DHT22;1904;50.076;8.660;2022-07-17T14:55:39;33.10;1.00
3778;DHT22;1904;50.076;8.660;2022-07-17T14:58:05;33.10;1.00
3778;DHT22;1904;50.076;8.660;2022-07-17T15:00:31;33.10;1.00
3778;DHT22;1904;50.076;8.660;2022-07-17T15:02:57;33.20;1.00
3778;DHT22;1904;50.076;8.660;2022-07-17T15:05:23;33.30;1.00
3778;DHT22;1904;50.076;8.660;2022-07-17T15:07:48;33.30;1.00
3778;DHT22;1904;50.076;8.660;2022-07-17T15:10:29;33.30;1.00
3778;DHT22;1904;50.076;8.660;2022-07-17T15:13:00;33.30;1.00
3778;DHT22;1904;50.076;8.660;2022-07-17T15:15:35;33.50;1.00
3778;DHT22;1904;50.076;8.660;2022-07-17T15:18:11;34.10;1.00
3778;DHT22;1904;50.076;8.660;2022-07-17T15:20:37;35.20;1.00
3778;DHT22;1904;50.076;8.660;2022-07-17T15:23:11;36.80;1.00
3778;DHT22;1904;50.076;8.660;2022-07-17T15:25:37;38.20;1.00
3778;DHT22;1904;50.076;8.660;2022-07-17T15:28:03;39.30;1.00
3778;DHT22;1904;50.076;8.660;2022-07-17T15:30:29;40.70;1.00
3778;DHT22;1904;50.076;8.660;2022-07-17T15:32:54;42.00;1.00
3778;DHT22;1904;50.076;8.660;2022-07-17T15:35:20;42.70;1.00
3778;DHT22;1904;50.076;8.660;2022-07-17T15:37:46;43.00;1.00
3778;DHT22;1904;50.076;8.660;2022-07-17T15:40:14;43.70;1.00
3778;DHT22;1904;50.076;8.660;2022-07-17T15:42:53;44.10;1.00
3778;DHT22;1904;50.076;8.660;2022-07-17T15:45:20;44.50;1.00
3778;DHT22;1904;50.076;8.660;2022-07-17T15:47:47;45.00;1.00
3778;DHT22;1904;50.076;8.660;2022-07-17T15:50:29;45.80;1.00
3778;DHT22;1904;50.076;8.660;2022-07-17T15:53:00;46.40;1.00
3778;DHT22;1904;50.076;8.660;2022-07-17T15:55:28;46.90;1.00
3778;DHT22;1904;50.076;8.660;2022-07-17T15:57:59;47.30;1.00
3778;DHT22;1904;50.076;8.660;2022-07-17T16:00:29;47.80;1.00
3778;DHT22;1904;50.076;8.660;2022-07-17T16:02:55;48.70;1.00
3778;DHT22;1904;50.076;8.660;2022-07-17T16:05:29;49.40;1.00
3778;DHT22;1904;50.076;8.660;2022-07-17T16:08:06;49.90;1.00
3778;DHT22;1904;50.076;8.660;2022-07-17T16:10:35;50.50;1.00
3778;DHT22;1904;50.076;8.660;2022-07-17T16:13:05;50.70;1.00
3778;DHT22;1904;50.076;8.660;2022-07-17T16:15:31;51.10;1.00
3778;DHT22;1904;50.076;8.660;2022-07-17T16:17:57;50.70;1.00
3778;DHT22;1904;50.076;8.660;2022-07-17T16:20:23;50.80;1.00
3778;DHT22;1904;50.076;8.660;2022-07-17T16:22:50;50.70;1.00
3778;DHT22;1904;50.076;8.660;2022-07-17T16:25:18;50.70;1.00
3778;DHT22;1904;50.076;8.660;2022-07-17T16:27:43;51.00;1.00
3778;DHT22;1904;50.076;8.660;2022-07-17T16:30:11;51.10;1.00
3778;DHT22;1904;50.076;8.660;2022-07-17T16:32:37;50.90;1.00
3778;DHT22;1904;50.076;8.660;2022-07-17T16:35:11;50.30;1.00
3778;DHT22;1904;50.076;8.660;2022-07-17T16:37:41;50.50;1.00
3778;DHT22;1904;50.076;8.660;2022-07-17T16:40:07;50.80;1.00
3778;DHT22;1904;50.076;8.660;2022-07-17T16:42:33;50.50;1.00
3778;DHT22;1904;50.076;8.660;2022-07-17T16:44:59;50.70;1.00
3778;DHT22;1904;50.076;8.660;2022-07-17T16:47:25;50.50;1.00
3778;DHT22;1904;50.076;8.660;2022-07-17T16:49:50;50.50;1.00
3778;DHT22;1904;50.076;8.660;2022-07-17T16:52:16;50.50;1.00
3778;DHT22;1904;50.076;8.660;2022-07-17T16:54:42;50.80;1.00
3778;DHT22;1904;50.076;8.660;2022-07-17T16:57:07;50.90;1.00
3778;DHT22;1904;50.076;8.660;2022-07-17T16:59:33;50.90;1.00
3778;DHT22;1904;50.076;8.660;2022-07-17T17:01:59;50.80;1.00
3778;DHT22;1904;50.076;8.660;2022-07-17T17:04:24;50.80;1.00
3778;DHT22;1904;50.076;8.660;2022-07-17T17:06:50;50.70;1.00
3778;DHT22;1904;50.076;8.660;2022-07-17T17:09:16;50.70;1.00
3778;DHT22;1904;50.076;8.660;2022-07-17T17:11:42;50.90;1.00